KSGU/SGU METAR and TAF weather

Enter ICAO airport designator
Station Type Date Time Source
KSGU METAR 2020/04/04 10:56 UTC NOAA

KSGU 041056Z AUTO 00000KT 10SM CLR 08/M01 A2983 RMK AO2 SLP088 T00781011


Station Type Date Time Source
KSGU Decoded METAR 2020/04/04 10:56 UTC NOAA

St George, St George Municipal Airport, UT, United States (KSGU) 37-05N 113-36W
Apr 04, 2020 - 06:56 AM EDT / 2020.04.04 1056 UTC
Wind: Calm:0
Visibility: 10 mile(s):0
Sky conditions: clear
Temperature: 46.0 F (7.8 C)
Dew Point: 30.0 F (-1.1 C)
Relative Humidity: 53%
Pressure (altimeter): 29.83 in. Hg (1010 hPa)
ob: KSGU 041056Z AUTO 00000KT 10SM CLR 08/M01 A2983 RMK AO2 SLP088 T00781011
cycle: 11

Station Type Date Time Source
KSGU TAF 2020/04/04 12:22 UTC NOAA

TAF KSGU 041120Z 0412/0512 15005KT P6SM FEW150
FM041900 24015G25KT P6SM FEW150
FM050400 18012G18KT P6SM SCT100

Example: see airport list